sensor_id;sensor_type;location;lat;lon;timestamp;P1;durP1;ratioP1;P2;durP2;ratioP2
9072;SDS011;4572;41.642;25.370;2022-12-18T00:01:35;16.80;;;10.67;;
9072;SDS011;4572;41.642;25.370;2022-12-18T00:04:02;20.37;;;9.47;;
9072;SDS011;4572;41.642;25.370;2022-12-18T00:06:29;16.80;;;10.00;;
9072;SDS011;4572;41.642;25.370;2022-12-18T00:08:55;11.00;;;8.50;;
9072;SDS011;4572;41.642;25.370;2022-12-18T00:11:23;13.27;;;8.20;;
9072;SDS011;4572;41.642;25.370;2022-12-18T00:13:50;17.53;;;8.20;;
9072;SDS011;4572;41.642;25.370;2022-12-18T00:16:17;13.97;;;8.97;;
9072;SDS011;4572;41.642;25.370;2022-12-18T00:18:45;17.33;;;8.70;;
9072;SDS011;4572;41.642;25.370;2022-12-18T00:21:12;22.13;;;9.60;;
9072;SDS011;4572;41.642;25.370;2022-12-18T00:23:38;12.40;;;8.73;;
9072;SDS011;4572;41.642;25.370;2022-12-18T00:26:06;17.87;;;7.83;;
9072;SDS011;4572;41.642;25.370;2022-12-18T00:28:40;11.50;;;7.37;;
9072;SDS011;4572;41.642;25.370;2022-12-18T00:31:07;14.60;;;7.33;;
9072;SDS011;4572;41.642;25.370;2022-12-18T00:33:33;15.67;;;6.67;;
9072;SDS011;4572;41.642;25.370;2022-12-18T00:36:03;14.87;;;7.90;;
9072;SDS011;4572;41.642;25.370;2022-12-18T00:38:34;14.33;;;7.33;;
9072;SDS011;4572;41.642;25.370;2022-12-18T00:41:00;11.53;;;7.13;;
9072;SDS011;4572;41.642;25.370;2022-12-18T00:43:26;13.77;;;7.30;;
9072;SDS011;4572;41.642;25.370;2022-12-18T00:45:52;14.43;;;8.57;;
9072;SDS011;4572;41.642;25.370;2022-12-18T00:48:17;15.50;;;8.83;;
9072;SDS011;4572;41.642;25.370;2022-12-18T00:50:43;15.27;;;9.87;;
9072;SDS011;4572;41.642;25.370;2022-12-18T00:53:10;13.47;;;8.93;;
9072;SDS011;4572;41.642;25.370;2022-12-18T00:55:40;13.27;;;8.40;;
9072;SDS011;4572;41.642;25.370;2022-12-18T00:58:05;21.17;;;8.93;;
9072;SDS011;4572;41.642;25.370;2022-12-18T01:00:31;14.83;;;8.37;;
9072;SDS011;4572;41.642;25.370;2022-12-18T01:02:56;16.30;;;8.07;;
9072;SDS011;4572;41.642;25.370;2022-12-18T01:05:22;17.80;;;8.77;;
9072;SDS011;4572;41.642;25.370;2022-12-18T01:07:47;12.03;;;8.47;;
9072;SDS011;4572;41.642;25.370;2022-12-18T01:10:13;13.57;;;8.20;;
9072;SDS011;4572;41.642;25.370;2022-12-18T01:12:38;12.27;;;8.70;;
9072;SDS011;4572;41.642;25.370;2022-12-18T01:15:04;13.50;;;9.07;;
9072;SDS011;4572;41.642;25.370;2022-12-18T01:17:31;18.70;;;9.50;;
9072;SDS011;4572;41.642;25.370;2022-12-18T01:19:56;13.53;;;9.30;;
9072;SDS011;4572;41.642;25.370;2022-12-18T01:22:22;13.13;;;9.00;;
9072;SDS011;4572;41.642;25.370;2022-12-18T01:24:47;10.77;;;8.20;;
9072;SDS011;4572;41.642;25.370;2022-12-18T01:27:13;13.90;;;9.60;;
9072;SDS011;4572;41.642;25.370;2022-12-18T01:29:38;13.60;;;9.23;;
9072;SDS011;4572;41.642;25.370;2022-12-18T01:32:04;14.13;;;8.77;;
9072;SDS011;4572;41.642;25.370;2022-12-18T01:34:30;13.73;;;8.67;;
9072;SDS011;4572;41.642;25.370;2022-12-18T01:36:55;13.73;;;8.90;;
9072;SDS011;4572;41.642;25.370;2022-12-18T01:39:21;14.10;;;9.07;;
9072;SDS011;4572;41.642;25.370;2022-12-18T01:41:46;13.03;;;9.63;;
9072;SDS011;4572;41.642;25.370;2022-12-18T01:49:57;12.07;;;9.40;;
9072;SDS011;4572;41.642;25.370;2022-12-18T01:52:26;13.80;;;10.10;;
9072;SDS011;4572;41.642;25.370;2022-12-18T01:54:54;13.90;;;9.63;;
9072;SDS011;4572;41.642;25.370;2022-12-18T01:57:21;16.43;;;9.90;;
9072;SDS011;4572;41.642;25.370;2022-12-18T01:59:49;19.10;;;10.13;;
9072;SDS011;4572;41.642;25.370;2022-12-18T02:02:18;11.43;;;9.23;;
9072;SDS011;4572;41.642;25.370;2022-12-18T02:04:44;17.47;;;9.77;;
9072;SDS011;4572;41.642;25.370;2022-12-18T02:10:06;13.63;;;10.80;;
9072;SDS011;4572;41.642;25.370;2022-12-18T02:12:48;12.47;;;9.93;;
9072;SDS011;4572;41.642;25.370;2022-12-18T02:15:40;16.60;;;9.90;;
9072;SDS011;4572;41.642;25.370;2022-12-18T02:18:29;13.47;;;9.33;;
9072;SDS011;4572;41.642;25.370;2022-12-18T02:26:30;12.70;;;9.83;;
9072;SDS011;4572;41.642;25.370;2022-12-18T02:29:02;14.33;;;9.60;;
9072;SDS011;4572;41.642;25.370;2022-12-18T02:31:31;15.83;;;10.63;;
9072;SDS011;4572;41.642;25.370;2022-12-18T02:34:02;15.93;;;10.20;;
9072;SDS011;4572;41.642;25.370;2022-12-18T02:36:28;16.73;;;9.83;;
9072;SDS011;4572;41.642;25.370;2022-12-18T02:38:55;15.47;;;9.83;;
9072;SDS011;4572;41.642;25.370;2022-12-18T02:41:21;13.47;;;9.60;;
9072;SDS011;4572;41.642;25.370;2022-12-18T02:43:58;14.60;;;9.90;;
9072;SDS011;4572;41.642;25.370;2022-12-18T02:49:01;13.27;;;9.43;;
9072;SDS011;4572;41.642;25.370;2022-12-18T02:51:38;12.80;;;9.47;;
9072;SDS011;4572;41.642;25.370;2022-12-18T02:54:20;12.87;;;9.50;;
9072;SDS011;4572;41.642;25.370;2022-12-18T02:56:50;13.83;;;9.97;;
9072;SDS011;4572;41.642;25.370;2022-12-18T02:59:19;12.70;;;9.77;;
9072;SDS011;4572;41.642;25.370;2022-12-18T03:01:56;14.43;;;10.33;;
9072;SDS011;4572;41.642;25.370;2022-12-18T03:06:50;13.30;;;10.43;;
9072;SDS011;4572;41.642;25.370;2022-12-18T03:09:20;14.90;;;10.73;;
9072;SDS011;4572;41.642;25.370;2022-12-18T03:11:55;14.90;;;10.63;;
9072;SDS011;4572;41.642;25.370;2022-12-18T03:14:42;12.93;;;10.00;;
9072;SDS011;4572;41.642;25.370;2022-12-18T03:17:09;14.00;;;10.07;;
9072;SDS011;4572;41.642;25.370;2022-12-18T03:19:38;16.73;;;9.40;;
9072;SDS011;4572;41.642;25.370;2022-12-18T03:22:04;12.73;;;9.67;;
9072;SDS011;4572;41.642;25.370;2022-12-18T03:24:31;14.43;;;9.33;;
9072;SDS011;4572;41.642;25.370;2022-12-18T03:27:00;15.53;;;10.43;;
9072;SDS011;4572;41.642;25.370;2022-12-18T03:29:27;12.80;;;9.90;;
9072;SDS011;4572;41.642;25.370;2022-12-18T03:32:00;15.93;;;11.40;;
9072;SDS011;4572;41.642;25.370;2022-12-18T03:34:30;13.77;;;11.13;;
9072;SDS011;4572;41.642;25.370;2022-12-18T03:36:58;15.73;;;10.83;;
9072;SDS011;4572;41.642;25.370;2022-12-18T03:39:24;16.47;;;12.00;;
9072;SDS011;4572;41.642;25.370;2022-12-18T03:41:51;16.90;;;11.63;;
9072;SDS011;4572;41.642;25.370;2022-12-18T03:47:46;15.13;;;10.80;;
9072;SDS011;4572;41.642;25.370;2022-12-18T03:50:25;17.03;;;10.80;;
9072;SDS011;4572;41.642;25.370;2022-12-18T03:53:00;16.17;;;10.77;;
9072;SDS011;4572;41.642;25.370;2022-12-18T03:55:32;14.37;;;10.30;;
9072;SDS011;4572;41.642;25.370;2022-12-18T03:57:59;13.77;;;10.03;;
9072;SDS011;4572;41.642;25.370;2022-12-18T04:00:26;15.83;;;11.07;;
9072;SDS011;4572;41.642;25.370;2022-12-18T04:02:52;17.60;;;11.17;;
9072;SDS011;4572;41.642;25.370;2022-12-18T04:05:20;15.43;;;10.57;;
9072;SDS011;4572;41.642;25.370;2022-12-18T04:07:47;17.93;;;11.23;;
9072;SDS011;4572;41.642;25.370;2022-12-18T04:10:14;14.60;;;11.20;;
9072;SDS011;4572;41.642;25.370;2022-12-18T04:12:41;14.63;;;11.37;;
9072;SDS011;4572;41.642;25.370;2022-12-18T04:15:07;16.00;;;11.73;;
9072;SDS011;4572;41.642;25.370;2022-12-18T04:17:33;14.53;;;11.47;;
9072;SDS011;4572;41.642;25.370;2022-12-18T04:19:59;15.20;;;11.20;;
9072;SDS011;4572;41.642;25.370;2022-12-18T04:22:24;16.90;;;11.83;;
9072;SDS011;4572;41.642;25.370;2022-12-18T04:24:50;13.73;;;10.73;;
9072;SDS011;4572;41.642;25.370;2022-12-18T04:27:15;17.27;;;12.07;;
9072;SDS011;4572;41.642;25.370;2022-12-18T04:29:41;17.20;;;11.53;;
9072;SDS011;4572;41.642;25.370;2022-12-18T04:32:06;19.17;;;14.23;;
9072;SDS011;4572;41.642;25.370;2022-12-18T04:34:32;16.50;;;11.80;;
9072;SDS011;4572;41.642;25.370;2022-12-18T04:36:57;17.10;;;11.60;;
9072;SDS011;4572;41.642;25.370;2022-12-18T04:39:24;14.60;;;11.63;;
9072;SDS011;4572;41.642;25.370;2022-12-18T04:41:49;11.83;;;10.30;;
9072;SDS011;4572;41.642;25.370;2022-12-18T04:44:15;13.63;;;10.27;;
9072;SDS011;4572;41.642;25.370;2022-12-18T04:46:40;16.37;;;11.27;;
9072;SDS011;4572;41.642;25.370;2022-12-18T04:49:05;17.43;;;12.07;;
9072;SDS011;4572;41.642;25.370;2022-12-18T04:51:31;13.60;;;11.50;;
9072;SDS011;4572;41.642;25.370;2022-12-18T04:53:57;22.40;;;13.63;;
9072;SDS011;4572;41.642;25.370;2022-12-18T04:56:23;20.07;;;13.50;;
9072;SDS011;4572;41.642;25.370;2022-12-18T04:58:48;18.10;;;12.80;;
9072;SDS011;4572;41.642;25.370;2022-12-18T05:01:14;15.20;;;11.53;;
9072;SDS011;4572;41.642;25.370;2022-12-18T05:03:41;13.83;;;10.73;;
9072;SDS011;4572;41.642;25.370;2022-12-18T05:06:07;15.57;;;11.13;;
9072;SDS011;4572;41.642;25.370;2022-12-18T05:08:33;15.90;;;11.57;;
9072;SDS011;4572;41.642;25.370;2022-12-18T05:11:02;15.20;;;11.30;;
9072;SDS011;4572;41.642;25.370;2022-12-18T05:13:33;15.40;;;10.43;;
9072;SDS011;4572;41.642;25.370;2022-12-18T05:15:59;14.60;;;10.90;;
9072;SDS011;4572;41.642;25.370;2022-12-18T05:18:25;12.83;;;10.60;;
9072;SDS011;4572;41.642;25.370;2022-12-18T05:20:51;18.83;;;12.17;;
9072;SDS011;4572;41.642;25.370;2022-12-18T05:23:18;16.63;;;11.40;;
9072;SDS011;4572;41.642;25.370;2022-12-18T05:25:46;15.27;;;10.97;;
9072;SDS011;4572;41.642;25.370;2022-12-18T05:28:33;16.40;;;12.10;;
9072;SDS011;4572;41.642;25.370;2022-12-18T05:31:00;15.70;;;10.37;;
9072;SDS011;4572;41.642;25.370;2022-12-18T05:33:29;16.47;;;10.80;;
9072;SDS011;4572;41.642;25.370;2022-12-18T05:35:57;15.67;;;10.40;;
9072;SDS011;4572;41.642;25.370;2022-12-18T05:38:29;15.87;;;10.73;;
9072;SDS011;4572;41.642;25.370;2022-12-18T05:40:55;13.87;;;10.87;;
9072;SDS011;4572;41.642;25.370;2022-12-18T05:43:22;16.07;;;10.73;;
9072;SDS011;4572;41.642;25.370;2022-12-18T05:45:48;16.33;;;10.17;;
9072;SDS011;4572;41.642;25.370;2022-12-18T05:48:15;14.20;;;10.53;;
9072;SDS011;4572;41.642;25.370;2022-12-18T05:50:41;20.13;;;13.07;;
9072;SDS011;4572;41.642;25.370;2022-12-18T05:53:08;17.10;;;11.70;;
9072;SDS011;4572;41.642;25.370;2022-12-18T05:55:38;18.30;;;12.33;;
9072;SDS011;4572;41.642;25.370;2022-12-18T05:58:05;16.27;;;12.27;;
9072;SDS011;4572;41.642;25.370;2022-12-18T06:00:32;17.67;;;12.73;;
9072;SDS011;4572;41.642;25.370;2022-12-18T06:02:58;18.83;;;13.00;;
9072;SDS011;4572;41.642;25.370;2022-12-18T06:05:24;22.03;;;13.57;;
9072;SDS011;4572;41.642;25.370;2022-12-18T06:07:50;20.43;;;11.97;;
9072;SDS011;4572;41.642;25.370;2022-12-18T06:10:16;17.10;;;11.83;;
9072;SDS011;4572;41.642;25.370;2022-12-18T06:12:41;16.97;;;12.00;;
9072;SDS011;4572;41.642;25.370;2022-12-18T06:15:07;17.73;;;12.27;;
9072;SDS011;4572;41.642;25.370;2022-12-18T06:17:33;21.53;;;12.97;;
9072;SDS011;4572;41.642;25.370;2022-12-18T06:19:58;16.40;;;12.83;;
9072;SDS011;4572;41.642;25.370;2022-12-18T06:22:24;18.10;;;12.93;;
9072;SDS011;4572;41.642;25.370;2022-12-18T06:24:50;18.07;;;11.93;;
9072;SDS011;4572;41.642;25.370;2022-12-18T06:27:16;19.30;;;13.07;;
9072;SDS011;4572;41.642;25.370;2022-12-18T06:29:41;19.67;;;13.50;;
9072;SDS011;4572;41.642;25.370;2022-12-18T06:32:07;20.97;;;14.50;;
9072;SDS011;4572;41.642;25.370;2022-12-18T06:34:33;19.40;;;12.87;;
9072;SDS011;4572;41.642;25.370;2022-12-18T06:36:59;21.50;;;14.60;;
9072;SDS011;4572;41.642;25.370;2022-12-18T06:39:26;19.47;;;14.57;;
9072;SDS011;4572;41.642;25.370;2022-12-18T06:41:52;20.17;;;14.53;;
9072;SDS011;4572;41.642;25.370;2022-12-18T06:44:18;22.00;;;15.00;;
9072;SDS011;4572;41.642;25.370;2022-12-18T06:46:43;20.03;;;14.07;;
9072;SDS011;4572;41.642;25.370;2022-12-18T06:49:09;19.93;;;13.60;;
9072;SDS011;4572;41.642;25.370;2022-12-18T06:51:35;19.23;;;14.03;;
9072;SDS011;4572;41.642;25.370;2022-12-18T06:54:00;19.97;;;13.37;;
9072;SDS011;4572;41.642;25.370;2022-12-18T06:56:26;19.00;;;13.90;;
9072;SDS011;4572;41.642;25.370;2022-12-18T06:58:51;17.40;;;14.07;;
9072;SDS011;4572;41.642;25.370;2022-12-18T07:01:17;19.60;;;14.83;;
9072;SDS011;4572;41.642;25.370;2022-12-18T07:03:43;20.93;;;14.80;;
9072;SDS011;4572;41.642;25.370;2022-12-18T07:06:13;20.73;;;15.20;;
9072;SDS011;4572;41.642;25.370;2022-12-18T07:08:42;21.17;;;15.33;;
9072;SDS011;4572;41.642;25.370;2022-12-18T07:11:08;24.30;;;17.30;;
9072;SDS011;4572;41.642;25.370;2022-12-18T07:13:33;20.33;;;15.77;;
9072;SDS011;4572;41.642;25.370;2022-12-18T07:16:09;20.90;;;16.57;;
9072;SDS011;4572;41.642;25.370;2022-12-18T07:18:36;22.00;;;15.03;;
9072;SDS011;4572;41.642;25.370;2022-12-18T07:21:02;21.70;;;15.40;;
9072;SDS011;4572;41.642;25.370;2022-12-18T07:23:29;20.60;;;15.73;;
9072;SDS011;4572;41.642;25.370;2022-12-18T07:25:55;19.43;;;15.73;;
9072;SDS011;4572;41.642;25.370;2022-12-18T07:28:20;23.93;;;16.30;;
9072;SDS011;4572;41.642;25.370;2022-12-18T07:30:46;21.77;;;16.07;;
9072;SDS011;4572;41.642;25.370;2022-12-18T07:33:12;24.73;;;16.80;;
9072;SDS011;4572;41.642;25.370;2022-12-18T07:35:37;22.13;;;16.27;;
9072;SDS011;4572;41.642;25.370;2022-12-18T07:38:03;25.00;;;16.67;;
9072;SDS011;4572;41.642;25.370;2022-12-18T07:40:28;19.80;;;15.27;;
9072;SDS011;4572;41.642;25.370;2022-12-18T07:42:54;19.67;;;15.57;;
9072;SDS011;4572;41.642;25.370;2022-12-18T07:45:19;26.97;;;18.83;;
9072;SDS011;4572;41.642;25.370;2022-12-18T07:47:44;23.20;;;17.53;;
9072;SDS011;4572;41.642;25.370;2022-12-18T07:50:10;23.67;;;17.07;;
9072;SDS011;4572;41.642;25.370;2022-12-18T07:52:36;20.43;;;16.23;;
9072;SDS011;4572;41.642;25.370;2022-12-18T07:55:01;21.47;;;16.17;;
9072;SDS011;4572;41.642;25.370;2022-12-18T07:57:27;18.83;;;14.67;;
9072;SDS011;4572;41.642;25.370;2022-12-18T07:59:53;18.73;;;15.10;;
9072;SDS011;4572;41.642;25.370;2022-12-18T08:02:18;20.97;;;16.33;;
9072;SDS011;4572;41.642;25.370;2022-12-18T08:04:43;22.53;;;15.87;;
9072;SDS011;4572;41.642;25.370;2022-12-18T08:07:09;20.40;;;15.10;;
9072;SDS011;4572;41.642;25.370;2022-12-18T08:09:34;20.63;;;14.60;;
9072;SDS011;4572;41.642;25.370;2022-12-18T08:12:00;19.33;;;14.77;;
9072;SDS011;4572;41.642;25.370;2022-12-18T08:14:25;18.83;;;14.70;;
9072;SDS011;4572;41.642;25.370;2022-12-18T08:16:51;18.83;;;14.23;;
9072;SDS011;4572;41.642;25.370;2022-12-18T08:19:16;17.73;;;14.43;;
9072;SDS011;4572;41.642;25.370;2022-12-18T08:21:42;23.87;;;15.87;;
9072;SDS011;4572;41.642;25.370;2022-12-18T08:24:08;22.40;;;16.13;;
9072;SDS011;4572;41.642;25.370;2022-12-18T08:26:34;19.53;;;13.93;;
9072;SDS011;4572;41.642;25.370;2022-12-18T08:29:00;19.77;;;13.43;;
9072;SDS011;4572;41.642;25.370;2022-12-18T08:31:26;19.17;;;14.23;;
9072;SDS011;4572;41.642;25.370;2022-12-18T08:33:52;20.53;;;14.60;;
9072;SDS011;4572;41.642;25.370;2022-12-18T08:36:18;21.40;;;15.13;;
9072;SDS011;4572;41.642;25.370;2022-12-18T08:38:44;21.47;;;15.43;;
9072;SDS011;4572;41.642;25.370;2022-12-18T08:41:11;22.10;;;15.17;;
9072;SDS011;4572;41.642;25.370;2022-12-18T08:43:37;23.90;;;16.47;;
9072;SDS011;4572;41.642;25.370;2022-12-18T08:46:22;21.63;;;17.43;;
9072;SDS011;4572;41.642;25.370;2022-12-18T08:48:52;22.70;;;17.40;;
9072;SDS011;4572;41.642;25.370;2022-12-18T08:51:19;26.33;;;19.73;;
9072;SDS011;4572;41.642;25.370;2022-12-18T08:53:45;23.43;;;19.03;;
9072;SDS011;4572;41.642;25.370;2022-12-18T08:56:11;24.53;;;19.30;;
9072;SDS011;4572;41.642;25.370;2022-12-18T08:58:37;24.03;;;18.00;;
9072;SDS011;4572;41.642;25.370;2022-12-18T09:01:03;22.50;;;18.10;;
9072;SDS011;4572;41.642;25.370;2022-12-18T09:03:29;23.90;;;18.33;;
9072;SDS011;4572;41.642;25.370;2022-12-18T09:05:55;24.80;;;17.03;;
9072;SDS011;4572;41.642;25.370;2022-12-18T09:08:20;26.40;;;19.07;;
9072;SDS011;4572;41.642;25.370;2022-12-18T09:10:47;24.83;;;17.50;;
9072;SDS011;4572;41.642;25.370;2022-12-18T09:13:14;25.67;;;17.47;;
9072;SDS011;4572;41.642;25.370;2022-12-18T09:15:50;24.03;;;16.87;;
9072;SDS011;4572;41.642;25.370;2022-12-18T09:18:18;20.00;;;16.33;;
9072;SDS011;4572;41.642;25.370;2022-12-18T09:20:45;22.57;;;16.20;;
9072;SDS011;4572;41.642;25.370;2022-12-18T09:23:11;19.23;;;14.50;;
9072;SDS011;4572;41.642;25.370;2022-12-18T09:25:37;24.60;;;17.23;;
9072;SDS011;4572;41.642;25.370;2022-12-18T09:28:06;18.27;;;13.43;;
9072;SDS011;4572;41.642;25.370;2022-12-18T09:30:36;19.07;;;14.17;;
9072;SDS011;4572;41.642;25.370;2022-12-18T09:33:20;20.17;;;13.60;;
9072;SDS011;4572;41.642;25.370;2022-12-18T09:35:45;20.17;;;12.73;;
9072;SDS011;4572;41.642;25.370;2022-12-18T09:38:12;30.17;;;19.50;;
9072;SDS011;4572;41.642;25.370;2022-12-18T09:40:53;14.40;;;11.27;;
9072;SDS011;4572;41.642;25.370;2022-12-18T09:43:30;14.17;;;10.10;;
9072;SDS011;4572;41.642;25.370;2022-12-18T09:46:05;12.00;;;9.90;;
9072;SDS011;4572;41.642;25.370;2022-12-18T09:48:38;10.77;;;9.07;;
9072;SDS011;4572;41.642;25.370;2022-12-18T09:51:16;11.93;;;8.37;;
9072;SDS011;4572;41.642;25.370;2022-12-18T09:53:45;10.80;;;9.17;;
9072;SDS011;4572;41.642;25.370;2022-12-18T09:56:18;12.40;;;8.40;;
9072;SDS011;4572;41.642;25.370;2022-12-18T09:58:50;10.93;;;8.20;;
9072;SDS011;4572;41.642;25.370;2022-12-18T10:01:21;17.97;;;16.03;;
9072;SDS011;4572;41.642;25.370;2022-12-18T10:03:47;9.57;;;8.57;;
9072;SDS011;4572;41.642;25.370;2022-12-18T10:06:14;8.80;;;7.23;;
9072;SDS011;4572;41.642;25.370;2022-12-18T10:08:52;8.83;;;7.93;;
9072;SDS011;4572;41.642;25.370;2022-12-18T10:14:17;9.47;;;8.17;;
9072;SDS011;4572;41.642;25.370;2022-12-18T10:27:38;13.80;;;10.40;;
9072;SDS011;4572;41.642;25.370;2022-12-18T10:30:17;13.60;;;9.77;;
9072;SDS011;4572;41.642;25.370;2022-12-18T10:32:44;12.00;;;9.43;;
9072;SDS011;4572;41.642;25.370;2022-12-18T10:35:42;12.57;;;9.50;;
9072;SDS011;4572;41.642;25.370;2022-12-18T10:38:06;15.23;;;9.27;;
9072;SDS011;4572;41.642;25.370;2022-12-18T10:51:04;12.23;;;8.40;;
9072;SDS011;4572;41.642;25.370;2022-12-18T10:53:31;12.50;;;8.77;;
9072;SDS011;4572;41.642;25.370;2022-12-18T10:55:58;11.03;;;8.33;;
9072;SDS011;4572;41.642;25.370;2022-12-18T10:58:28;10.03;;;8.70;;
9072;SDS011;4572;41.642;25.370;2022-12-18T11:01:09;10.40;;;8.23;;
9072;SDS011;4572;41.642;25.370;2022-12-18T11:03:40;13.50;;;9.37;;
9072;SDS011;4572;41.642;25.370;2022-12-18T11:08:34;10.70;;;9.00;;
9072;SDS011;4572;41.642;25.370;2022-12-18T11:10:59;13.00;;;8.83;;
9072;SDS011;4572;41.642;25.370;2022-12-18T11:13:26;10.77;;;7.83;;
9072;SDS011;4572;41.642;25.370;2022-12-18T11:15:53;19.47;;;12.53;;
9072;SDS011;4572;41.642;25.370;2022-12-18T11:23:25;11.17;;;8.20;;
9072;SDS011;4572;41.642;25.370;2022-12-18T11:25:52;7.40;;;6.60;;
9072;SDS011;4572;41.642;25.370;2022-12-18T11:28:27;10.17;;;7.97;;
9072;SDS011;4572;41.642;25.370;2022-12-18T11:33:46;9.57;;;7.17;;
9072;SDS011;4572;41.642;25.370;2022-12-18T11:36:14;8.77;;;6.97;;
9072;SDS011;4572;41.642;25.370;2022-12-18T11:38:41;11.60;;;7.10;;
9072;SDS011;4572;41.642;25.370;2022-12-18T11:49:47;8.63;;;5.93;;
9072;SDS011;4572;41.642;25.370;2022-12-18T11:55:04;7.50;;;5.43;;
9072;SDS011;4572;41.642;25.370;2022-12-18T12:00:34;6.57;;;5.20;;
9072;SDS011;4572;41.642;25.370;2022-12-18T12:14:45;10.43;;;6.47;;
9072;SDS011;4572;41.642;25.370;2022-12-18T12:31:43;11.33;;;8.50;;
9072;SDS011;4572;41.642;25.370;2022-12-18T12:34:22;7.40;;;6.27;;
9072;SDS011;4572;41.642;25.370;2022-12-18T12:39:55;6.43;;;5.43;;
9072;SDS011;4572;41.642;25.370;2022-12-18T12:45:51;8.90;;;6.20;;
9072;SDS011;4572;41.642;25.370;2022-12-18T12:48:57;7.23;;;5.93;;
9072;SDS011;4572;41.642;25.370;2022-12-18T12:53:41;10.97;;;8.47;;
9072;SDS011;4572;41.642;25.370;2022-12-18T12:56:06;8.43;;;7.40;;
9072;SDS011;4572;41.642;25.370;2022-12-18T13:07:26;8.93;;;7.40;;
9072;SDS011;4572;41.642;25.370;2022-12-18T13:15:45;15.90;;;11.30;;
9072;SDS011;4572;41.642;25.370;2022-12-18T13:18:16;9.67;;;7.83;;
9072;SDS011;4572;41.642;25.370;2022-12-18T13:20:47;14.83;;;11.73;;
9072;SDS011;4572;41.642;25.370;2022-12-18T13:23:23;19.37;;;15.77;;
9072;SDS011;4572;41.642;25.370;2022-12-18T13:30:51;8.37;;;6.83;;
9072;SDS011;4572;41.642;25.370;2022-12-18T13:38:25;17.50;;;12.97;;
9072;SDS011;4572;41.642;25.370;2022-12-18T13:41:23;15.30;;;11.60;;
9072;SDS011;4572;41.642;25.370;2022-12-18T13:43:52;12.47;;;9.13;;
9072;SDS011;4572;41.642;25.370;2022-12-18T13:48:54;16.07;;;10.00;;
9072;SDS011;4572;41.642;25.370;2022-12-18T13:51:25;12.40;;;8.93;;
9072;SDS011;4572;41.642;25.370;2022-12-18T13:53:53;12.33;;;9.00;;
9072;SDS011;4572;41.642;25.370;2022-12-18T13:56:24;11.80;;;8.87;;
9072;SDS011;4572;41.642;25.370;2022-12-18T14:01:41;14.20;;;9.47;;
9072;SDS011;4572;41.642;25.370;2022-12-18T14:04:09;11.33;;;8.33;;
9072;SDS011;4572;41.642;25.370;2022-12-18T14:06:43;12.73;;;8.30;;
9072;SDS011;4572;41.642;25.370;2022-12-18T14:09:12;12.33;;;8.13;;
9072;SDS011;4572;41.642;25.370;2022-12-18T14:11:40;13.13;;;9.07;;
9072;SDS011;4572;41.642;25.370;2022-12-18T14:14:06;9.57;;;5.90;;
9072;SDS011;4572;41.642;25.370;2022-12-18T14:16:32;9.67;;;6.50;;
9072;SDS011;4572;41.642;25.370;2022-12-18T14:18:59;7.70;;;5.57;;
9072;SDS011;4572;41.642;25.370;2022-12-18T14:21:26;8.57;;;6.63;;
9072;SDS011;4572;41.642;25.370;2022-12-18T14:24:03;7.93;;;6.30;;
9072;SDS011;4572;41.642;25.370;2022-12-18T14:26:31;8.67;;;6.63;;
9072;SDS011;4572;41.642;25.370;2022-12-18T14:28:59;9.73;;;6.97;;
9072;SDS011;4572;41.642;25.370;2022-12-18T14:31:27;8.43;;;6.67;;
9072;SDS011;4572;41.642;25.370;2022-12-18T14:33:54;8.83;;;6.73;;
9072;SDS011;4572;41.642;25.370;2022-12-18T14:36:21;9.23;;;7.10;;
9072;SDS011;4572;41.642;25.370;2022-12-18T14:38:55;7.47;;;6.23;;
9072;SDS011;4572;41.642;25.370;2022-12-18T14:41:22;7.67;;;6.13;;
9072;SDS011;4572;41.642;25.370;2022-12-18T14:43:49;8.50;;;6.70;;
9072;SDS011;4572;41.642;25.370;2022-12-18T14:46:35;9.13;;;7.60;;
9072;SDS011;4572;41.642;25.370;2022-12-18T14:49:14;8.13;;;6.60;;
9072;SDS011;4572;41.642;25.370;2022-12-18T14:51:42;8.90;;;7.30;;
9072;SDS011;4572;41.642;25.370;2022-12-18T14:54:17;10.57;;;8.20;;
9072;SDS011;4572;41.642;25.370;2022-12-18T14:56:44;8.97;;;7.33;;
9072;SDS011;4572;41.642;25.370;2022-12-18T14:59:15;10.53;;;7.80;;
9072;SDS011;4572;41.642;25.370;2022-12-18T15:04:39;12.17;;;8.80;;
9072;SDS011;4572;41.642;25.370;2022-12-18T15:09:43;25.70;;;16.83;;
9072;SDS011;4572;41.642;25.370;2022-12-18T15:12:26;17.67;;;12.10;;
9072;SDS011;4572;41.642;25.370;2022-12-18T15:15:01;13.37;;;10.57;;
9072;SDS011;4572;41.642;25.370;2022-12-18T15:17:28;14.73;;;10.90;;
9072;SDS011;4572;41.642;25.370;2022-12-18T15:19:58;11.23;;;10.03;;
9072;SDS011;4572;41.642;25.370;2022-12-18T15:22:26;9.40;;;8.03;;
9072;SDS011;4572;41.642;25.370;2022-12-18T15:24:54;10.97;;;9.37;;
9072;SDS011;4572;41.642;25.370;2022-12-18T15:30:10;10.27;;;8.53;;
9072;SDS011;4572;41.642;25.370;2022-12-18T15:32:43;9.20;;;8.10;;
9072;SDS011;4572;41.642;25.370;2022-12-18T15:37:39;7.23;;;6.50;;
9072;SDS011;4572;41.642;25.370;2022-12-18T15:40:05;7.60;;;6.80;;
9072;SDS011;4572;41.642;25.370;2022-12-18T15:42:31;8.30;;;7.10;;
9072;SDS011;4572;41.642;25.370;2022-12-18T15:45:17;13.37;;;9.37;;
9072;SDS011;4572;41.642;25.370;2022-12-18T15:47:43;10.23;;;6.90;;
9072;SDS011;4572;41.642;25.370;2022-12-18T15:50:09;6.87;;;5.83;;
9072;SDS011;4572;41.642;25.370;2022-12-18T15:52:45;5.27;;;4.63;;
9072;SDS011;4572;41.642;25.370;2022-12-18T15:55:12;5.43;;;4.70;;
9072;SDS011;4572;41.642;25.370;2022-12-18T15:57:57;7.23;;;5.40;;
9072;SDS011;4572;41.642;25.370;2022-12-18T16:00:22;6.83;;;5.23;;
9072;SDS011;4572;41.642;25.370;2022-12-18T16:02:48;9.10;;;7.53;;
9072;SDS011;4572;41.642;25.370;2022-12-18T16:05:16;22.00;;;17.90;;
9072;SDS011;4572;41.642;25.370;2022-12-18T16:07:43;13.80;;;11.07;;
9072;SDS011;4572;41.642;25.370;2022-12-18T16:10:09;9.67;;;8.67;;
9072;SDS011;4572;41.642;25.370;2022-12-18T16:12:35;8.57;;;6.67;;
9072;SDS011;4572;41.642;25.370;2022-12-18T16:15:02;15.90;;;11.43;;
9072;SDS011;4572;41.642;25.370;2022-12-18T16:17:28;18.23;;;12.17;;
9072;SDS011;4572;41.642;25.370;2022-12-18T16:19:53;13.43;;;9.73;;
9072;SDS011;4572;41.642;25.370;2022-12-18T16:22:20;8.50;;;5.50;;
9072;SDS011;4572;41.642;25.370;2022-12-18T16:24:49;11.93;;;7.33;;
9072;SDS011;4572;41.642;25.370;2022-12-18T16:27:15;6.00;;;5.37;;
9072;SDS011;4572;41.642;25.370;2022-12-18T16:29:41;4.53;;;3.83;;
9072;SDS011;4572;41.642;25.370;2022-12-18T16:32:08;6.03;;;5.30;;
9072;SDS011;4572;41.642;25.370;2022-12-18T16:34:38;7.43;;;6.33;;
9072;SDS011;4572;41.642;25.370;2022-12-18T16:37:04;15.13;;;10.80;;
9072;SDS011;4572;41.642;25.370;2022-12-18T16:39:31;11.47;;;7.47;;
9072;SDS011;4572;41.642;25.370;2022-12-18T16:41:58;32.07;;;16.03;;
9072;SDS011;4572;41.642;25.370;2022-12-18T16:44:24;11.00;;;7.90;;
9072;SDS011;4572;41.642;25.370;2022-12-18T16:46:49;8.67;;;4.90;;
9072;SDS011;4572;41.642;25.370;2022-12-18T16:49:15;8.93;;;6.70;;
9072;SDS011;4572;41.642;25.370;2022-12-18T16:51:41;6.10;;;4.37;;
9072;SDS011;4572;41.642;25.370;2022-12-18T16:54:07;12.40;;;9.03;;
9072;SDS011;4572;41.642;25.370;2022-12-18T16:56:33;8.87;;;5.50;;
9072;SDS011;4572;41.642;25.370;2022-12-18T16:58:59;5.83;;;4.40;;
9072;SDS011;4572;41.642;25.370;2022-12-18T17:01:26;4.80;;;4.27;;
9072;SDS011;4572;41.642;25.370;2022-12-18T17:03:57;5.70;;;4.97;;
9072;SDS011;4572;41.642;25.370;2022-12-18T17:06:24;5.93;;;5.30;;
9072;SDS011;4572;41.642;25.370;2022-12-18T17:08:55;7.27;;;6.23;;
9072;SDS011;4572;41.642;25.370;2022-12-18T17:11:24;7.53;;;4.40;;
9072;SDS011;4572;41.642;25.370;2022-12-18T17:13:50;7.93;;;4.77;;
9072;SDS011;4572;41.642;25.370;2022-12-18T17:16:16;6.67;;;5.10;;
9072;SDS011;4572;41.642;25.370;2022-12-18T17:18:42;6.80;;;5.37;;